Time;durP1;ratioP1;P1;durP2;ratioP2;P2;SDS_P1;SDS_P2;PMS_P1;PMS_P2;Temp;Humidity;BMP_temperature;BMP_pressure;BME280_temperature;BME280_humidity;BME280_pressure;Samples;Min_cycle;Max_cycle;Signal;HPM_P1;HPM_P2
2020/12/17 00:00:28;;;;;;;25.00;11.87;;;;;;;3.27;82.44;101679.70;127767;1091;104554;-73
2020/12/17 00:03:04;;;;;;;28.83;13.00;;;;;;;3.27;83.40;101680.59;127756;1091;104429;-73
2020/12/17 00:05:33;;;;;;;27.00;11.90;;;;;;;3.29;83.80;101684.25;127799;1092;104414;-73
2020/12/17 00:08:03;;;;;;;26.23;12.63;;;;;;;3.32;83.22;101684.51;127811;1091;104541;-72
2020/12/17 00:10:39;;;;;;;26.27;12.30;;;;;;;3.38;83.14;101678.90;127807;1092;104566;-74
2020/12/17 00:13:09;;;;;;;25.13;11.67;;;;;;;3.42;83.18;101678.39;127797;1091;104470;-73
2020/12/17 00:15:38;;;;;;;26.73;12.23;;;;;;;3.44;83.25;101670.73;127810;1091;104414;-73
2020/12/17 00:18:08;;;;;;;28.77;13.13;;;;;;;3.44;82.79;101679.41;127813;1091;104900;-73
2020/12/17 00:20:37;;;;;;;26.67;12.47;;;;;;;3.45;83.30;101688.13;127782;1091;104849;-75
2020/12/17 00:23:06;;;;;;;24.40;12.17;;;;;;;3.42;83.30;101683.58;127771;1092;104415;-74
2020/12/17 00:25:36;;;;;;;24.23;10.73;;;;;;;3.39;82.50;101680.73;127777;1092;104410;-73
2020/12/17 00:28:05;;;;;;;25.70;12.15;;;;;;;3.39;83.11;101679.03;127767;1091;104407;-75
2020/12/17 00:30:35;;;;;;;26.70;12.53;;;;;;;3.42;83.44;101684.48;127810;1091;104404;-75
2020/12/17 00:33:04;;;;;;;23.70;11.57;;;;;;;3.44;83.04;101679.41;127802;1091;104410;-74
2020/12/17 00:35:33;;;;;;;26.20;12.20;;;;;;;3.45;83.64;101678.64;127805;1091;104452;-75
2020/12/17 00:38:03;;;;;;;25.50;12.15;;;;;;;3.47;82.71;101674.48;127795;1092;104417;-75
2020/12/17 00:40:32;;;;;;;26.93;11.73;;;;;;;3.50;82.99;101672.14;127593;1091;104410;-73
2020/12/17 00:43:01;;;;;;;25.97;12.50;;;;;;;3.54;83.76;101673.32;127606;1092;104477;-73
2020/12/17 00:45:31;;;;;;;25.23;11.80;;;;;;;3.55;83.81;101670.85;127741;1092;104442;-72
2020/12/17 00:48:00;;;;;;;24.83;11.80;;;;;;;3.56;82.59;101675.23;127662;1091;104542;-74
2020/12/17 00:50:29;;;;;;;28.57;12.27;;;;;;;3.54;82.78;101676.81;127749;1093;104540;-72
2020/12/17 00:52:59;;;;;;;25.40;12.03;;;;;;;3.56;83.76;101676.94;127764;1091;104407;-73
2020/12/17 00:55:28;;;;;;;25.30;12.37;;;;;;;3.57;83.61;101678.77;127803;1091;104538;-72
2020/12/17 00:57:58;;;;;;;25.37;12.03;;;;;;;3.59;83.71;101666.81;127797;1092;104414;-73
2020/12/17 01:00:27;;;;;;;26.60;12.13;;;;;;;3.61;83.05;101670.43;127821;1092;104481;-72
2020/12/17 01:02:57;;;;;;;26.17;12.00;;;;;;;3.59;83.52;101666.81;127815;1091;104518;-73
2020/12/17 01:05:26;;;;;;;26.87;12.37;;;;;;;3.58;82.63;101670.17;127763;1091;104416;-72
2020/12/17 01:07:55;;;;;;;26.73;12.10;;;;;;;3.56;82.99;101666.56;127815;1092;104410;-74
2020/12/17 01:10:25;;;;;;;23.93;11.33;;;;;;;3.56;83.75;101667.45;127778;1091;104935;-73
2020/12/17 01:12:54;;;;;;;24.07;10.63;;;;;;;3.57;83.08;101670.98;127787;1091;104442;-73
2020/12/17 01:15:24;;;;;;;23.23;9.63;;;;;;;3.57;83.43;101668.39;127757;1092;104407;-73
2020/12/17 01:17:53;;;;;;;23.37;10.67;;;;;;;3.57;83.59;101666.69;127744;1091;104509;-73
2020/12/17 01:20:23;;;;;;;22.13;10.53;;;;;;;3.59;83.55;101667.70;127824;1091;104413;-73
2020/12/17 01:22:54;;;;;;;23.70;11.43;;;;;;;3.57;83.93;101668.39;127794;1091;104419;-74
2020/12/17 01:25:24;;;;;;;22.23;10.37;;;;;;;3.56;82.90;101672.64;127823;1092;104433;-74
2020/12/17 01:27:53;;;;;;;26.60;11.63;;;;;;;3.55;83.88;101665.66;127818;1091;105028;-73
2020/12/17 01:30:23;;;;;;;21.30;10.47;;;;;;;3.57;82.75;101668.39;127771;1091;104407;-74
2020/12/17 01:32:54;;;;;;;23.13;11.10;;;;;;;3.57;83.49;101663.19;127798;1091;104417;-74
2020/12/17 01:35:23;;;;;;;22.90;10.63;;;;;;;3.58;82.92;101664.98;127805;1091;104451;-74
2020/12/17 01:37:52;;;;;;;24.30;11.23;;;;;;;3.61;83.55;101665.23;127821;1092;104432;-73
2020/12/17 01:40:22;;;;;;;25.73;12.60;;;;;;;3.58;83.84;101655.53;127841;1091;104599;-73
2020/12/17 01:42:51;;;;;;;26.80;12.50;;;;;;;3.58;83.45;101655.53;127799;1092;104535;-73
2020/12/17 01:45:21;;;;;;;27.30;11.80;;;;;;;3.57;83.33;101656.30;127795;1091;104426;-73
2020/12/17 01:47:52;;;;;;;25.90;12.03;;;;;;;3.55;83.07;101657.88;127825;1091;104417;-72
2020/12/17 01:50:22;;;;;;;23.60;11.07;;;;;;;3.58;84.02;101659.80;127829;1091;104455;-73
2020/12/17 01:52:53;;;;;;;25.00;12.30;;;;;;;3.61;83.66;101657.45;127799;1091;104541;-74
2020/12/17 01:55:26;;;;;;;21.53;10.23;;;;;;;3.62;83.58;101658.38;127788;1091;104551;-73
2020/12/17 01:57:58;;;;;;;23.07;11.30;;;;;;;3.60;83.56;101656.55;127796;1092;104541;-73
2020/12/17 02:00:28;;;;;;;22.77;10.47;;;;;;;3.62;83.50;101650.59;127794;1091;104535;-73
2020/12/17 02:02:58;;;;;;;23.53;11.17;;;;;;;3.62;83.08;101651.48;127816;1091;104429;-73
2020/12/17 02:05:27;;;;;;;22.13;10.83;;;;;;;3.61;83.43;101654.86;127779;1091;104475;-73
2020/12/17 02:07:58;;;;;;;23.57;11.23;;;;;;;3.57;83.51;101656.30;127742;1091;104592;-73
2020/12/17 02:10:29;;;;;;;27.60;12.60;;;;;;;3.57;83.73;101652.81;127786;1091;104534;-74
2020/12/17 02:12:59;;;;;;;25.43;11.77;;;;;;;3.58;83.83;101650.34;127831;1091;104849;-74
2020/12/17 02:15:28;;;;;;;22.60;10.47;;;;;;;3.61;83.25;101657.45;127826;1091;104545;-73
2020/12/17 02:17:57;;;;;;;23.37;11.60;;;;;;;3.63;83.39;101657.58;127785;1093;104535;-73
2020/12/17 02:20:27;;;;;;;24.90;11.90;;;;;;;3.66;83.72;101661.36;127783;1092;104534;-73
2020/12/17 02:22:56;;;;;;;24.43;11.50;;;;;;;3.68;83.00;101659.78;127812;1091;104446;-74
2020/12/17 02:25:26;;;;;;;22.77;10.87;;;;;;;3.68;83.73;101648.50;127818;1092;104821;-73
2020/12/17 02:27:55;;;;;;;24.33;11.33;;;;;;;3.67;83.98;101657.06;127828;1091;104406;-74
2020/12/17 02:30:25;;;;;;;24.20;10.77;;;;;;;3.65;83.59;101658.63;127812;1092;104541;-75
2020/12/17 02:32:54;;;;;;;23.63;11.40;;;;;;;3.65;83.93;101656.04;127772;1091;105123;-75
2020/12/17 02:35:24;;;;;;;21.97;10.10;;;;;;;3.66;83.39;101658.76;127814;1092;104432;-73
2020/12/17 02:37:53;;;;;;;22.27;11.10;;;;;;;3.68;84.04;101656.29;127795;1091;104538;-74
2020/12/17 02:40:22;;;;;;;25.03;12.20;;;;;;;3.70;83.57;101662.50;127813;1091;104407;-73
2020/12/17 02:42:52;;;;;;;27.33;12.70;;;;;;;3.71;83.45;101659.10;127801;1091;104404;-74
2020/12/17 02:45:21;;;;;;;25.67;12.87;;;;;;;3.74;83.40;101664.55;127778;1092;104545;-74
2020/12/17 02:47:50;;;;;;;24.05;11.20;;;;;;;3.72;83.77;101664.42;127804;1092;105070;-74
2020/12/17 02:50:20;;;;;;;23.40;10.97;;;;;;;3.71;84.21;101662.62;127808;1091;104435;-74
2020/12/17 02:52:50;;;;;;;24.27;12.03;;;;;;;3.70;83.73;101670.29;127828;1092;104536;-73
2020/12/17 02:55:19;;;;;;;23.93;11.07;;;;;;;3.71;83.83;101670.42;127816;1093;104554;-73
2020/12/17 02:57:49;;;;;;;23.27;12.00;;;;;;;3.73;83.24;101673.14;127770;1091;104462;-74
2020/12/17 03:00:18;;;;;;;23.30;10.93;;;;;;;3.75;83.13;101677.66;127754;1092;104484;-75
2020/12/17 03:02:47;;;;;;;23.60;11.60;;;;;;;3.77;83.80;101670.92;127568;1092;104432;-77
2020/12/17 03:05:17;;;;;;;24.73;11.70;;;;;;;3.78;83.95;101674.41;127615;1091;104407;-76
2020/12/17 03:07:46;;;;;;;24.17;11.40;;;;;;;3.78;83.52;101677.91;127583;1091;104503;-76
2020/12/17 03:10:16;;;;;;;23.53;11.40;;;;;;;3.75;83.68;101669.86;127725;1091;104410;-75
2020/12/17 03:12:46;;;;;;;23.97;10.57;;;;;;;3.75;84.15;101680.25;127807;1091;104384;-74
2020/12/17 03:15:15;;;;;;;23.47;10.33;;;;;;;3.75;83.23;101675.05;127804;1092;104478;-73
2020/12/17 03:17:45;;;;;;;24.57;11.53;;;;;;;3.74;83.30;101675.86;127821;1091;104471;-76
2020/12/17 03:20:15;;;;;;;22.67;10.53;;;;;;;3.76;83.31;101676.88;127556;1091;105099;-76
2020/12/17 03:22:44;;;;;;;23.73;11.13;;;;;;;3.80;84.09;101680.63;127772;1091;104641;-75
2020/12/17 03:25:15;;;;;;;23.47;11.53;;;;;;;3.83;84.17;101679.98;127743;1091;104481;-75
2020/12/17 03:27:44;;;;;;;24.50;11.43;;;;;;;3.81;83.37;101679.86;127800;1091;104481;-76
2020/12/17 03:30:14;;;;;;;24.97;11.60;;;;;;;3.78;83.93;101675.31;127821;1091;104419;-76
2020/12/17 03:32:43;;;;;;;25.17;11.30;;;;;;;3.76;83.63;101675.98;127772;1091;104475;-76
2020/12/17 03:35:13;;;;;;;25.30;12.13;;;;;;;3.74;83.97;101677.52;127747;1091;104413;-74
2020/12/17 03:37:42;;;;;;;24.97;11.47;;;;;;;3.76;83.97;101684.67;127772;1091;104406;-76
2020/12/17 03:40:11;;;;;;;23.33;11.13;;;;;;;3.78;83.92;101692.59;127801;1091;104410;-74
2020/12/17 03:42:41;;;;;;;23.73;11.17;;;;;;;3.78;84.08;101690.89;127828;1091;104532;-74
2020/12/17 03:45:10;;;;;;;24.17;11.10;;;;;;;3.81;84.07;101687.64;127796;1091;104429;-75
2020/12/17 03:47:39;;;;;;;24.80;11.30;;;;;;;3.85;84.24;101687.13;127776;1091;104551;-75
2020/12/17 03:50:09;;;;;;;26.97;11.67;;;;;;;3.83;83.85;101686.06;127805;1092;104469;-75
2020/12/17 03:52:39;;;;;;;25.83;12.37;;;;;;;3.81;83.40;101685.05;127793;1092;104471;-76
2020/12/17 03:55:08;;;;;;;26.73;12.30;;;;;;;3.80;83.80;101687.52;127813;1091;104471;-76
2020/12/17 03:57:38;;;;;;;25.43;11.83;;;;;;;3.81;84.07;101687.64;127777;1091;104519;-75
2020/12/17 04:00:08;;;;;;;25.30;11.30;;;;;;;3.82;84.13;101685.94;127801;1091;104538;-76
2020/12/17 04:02:37;;;;;;;23.80;10.80;;;;;;;3.80;84.01;101696.20;127777;1091;104512;-75
2020/12/17 04:05:06;;;;;;;23.13;10.53;;;;;;;3.76;83.75;101694.16;127780;1092;104414;-74
2020/12/17 04:07:36;;;;;;;23.50;10.87;;;;;;;3.75;83.77;101694.93;127805;1091;104427;-76
2020/12/17 04:10:06;;;;;;;21.50;10.17;;;;;;;3.77;84.38;101701.14;127781;1091;104534;-74
2020/12/17 04:12:35;;;;;;;27.03;11.97;;;;;;;3.79;83.62;101702.20;127772;1091;104538;-76
2020/12/17 04:15:05;;;;;;;25.30;11.37;;;;;;;3.83;84.31;101698.16;127774;1092;104576;-74
2020/12/17 04:17:34;;;;;;;25.23;10.97;;;;;;;3.85;84.15;101700.11;127822;1092;104404;-76
2020/12/17 04:20:04;;;;;;;23.83;11.30;;;;;;;3.86;83.68;101691.52;127798;1091;104407;-74
2020/12/17 04:22:34;;;;;;;25.27;11.77;;;;;;;3.87;84.19;101695.05;127801;1091;104410;-76
2020/12/17 04:25:03;;;;;;;24.43;11.50;;;;;;;3.88;84.22;101700.36;127854;1091;104458;-78
2020/12/17 04:27:33;;;;;;;25.73;11.43;;;;;;;3.87;83.38;101701.13;127558;1092;104417;-76
2020/12/17 04:30:03;;;;;;;26.33;11.90;;;;;;;3.85;83.51;101701.77;127757;1092;104472;-78
2020/12/17 04:32:32;;;;;;;23.40;10.57;;;;;;;3.86;83.98;101695.81;127825;1091;104544;-76
2020/12/17 04:35:02;;;;;;;23.20;11.17;;;;;;;3.86;83.39;101704.50;127775;1091;104545;-76
2020/12/17 04:37:31;;;;;;;24.33;10.17;;;;;;;3.84;84.04;101707.77;127781;1091;104420;-75
2020/12/17 04:40:00;;;;;;;22.20;10.50;;;;;;;3.83;83.80;101704.25;127794;1091;104474;-75
2020/12/17 04:42:31;;;;;;;23.77;11.50;;;;;;;3.84;84.11;101708.67;127775;1091;104475;-77
2020/12/17 04:45:02;;;;;;;24.00;11.53;;;;;;;3.85;84.12;101715.69;127793;1091;104533;-74
2020/12/17 04:47:32;;;;;;;24.00;11.87;;;;;;;3.85;83.94;101718.28;127587;1092;104435;-76
2020/12/17 04:50:07;;;;;;;27.00;13.07;;;;;;;3.87;83.90;101721.01;127480;1091;104637;-76
2020/12/17 04:52:38;;;;;;;27.47;12.70;;;;;;;3.86;84.28;101721.78;127458;1091;104430;-76
2020/12/17 04:55:10;;;;;;;28.90;13.87;;;;;;;3.85;83.65;101720.88;127614;1092;104404;-77
2020/12/17 04:57:44;;;;;;;26.60;12.43;;;;;;;3.87;83.56;101727.09;127503;1091;104410;-75
2020/12/17 05:00:14;;;;;;;24.80;11.83;;;;;;;3.84;84.08;101720.75;127743;1092;104547;-76
2020/12/17 05:02:47;;;;;;;27.53;12.97;;;;;;;3.84;84.02;101724.25;127574;1091;104509;-76
2020/12/17 05:05:16;;;;;;;22.53;11.10;;;;;;;3.83;83.52;101730.21;127544;1092;104551;-75
2020/12/17 05:07:46;;;;;;;24.43;12.40;;;;;;;3.86;83.99;101729.56;127493;1092;104490;-75
2020/12/17 05:10:15;;;;;;;23.50;10.90;;;;;;;3.88;83.89;101730.59;127643;1092;104561;-74
2020/12/17 05:12:45;;;;;;;24.53;11.97;;;;;;;3.91;84.01;101728.25;127798;1091;104574;-74
2020/12/17 05:15:14;;;;;;;24.67;10.77;;;;;;;3.93;83.32;101735.39;127685;1092;104631;-75
2020/12/17 05:17:49;;;;;;;25.13;11.17;;;;;;;3.94;83.50;101736.29;127732;1092;104449;-75
2020/12/17 05:20:18;;;;;;;24.17;10.57;;;;;;;3.92;83.88;101730.97;127806;1091;104406;-74
2020/12/17 05:22:49;;;;;;;23.87;11.37;;;;;;;3.90;83.60;101737.73;127794;1092;104480;-74
2020/12/17 05:25:19;;;;;;;22.87;10.67;;;;;;;3.87;83.29;101737.48;127593;1092;104452;-76
2020/12/17 05:27:50;;;;;;;22.00;10.10;;;;;;;3.84;83.33;101732.04;127750;1091;104612;-75
2020/12/17 05:30:20;;;;;;;22.37;10.53;;;;;;;3.83;84.03;101743.20;127815;1092;104413;-76
2020/12/17 05:32:49;;;;;;;22.73;10.13;;;;;;;3.84;84.07;101739.83;127664;1091;104408;-75
2020/12/17 05:35:19;;;;;;;22.07;10.07;;;;;;;3.87;84.12;101734.89;127750;1091;104439;-75
2020/12/17 05:37:49;;;;;;;24.50;11.80;;;;;;;3.87;83.52;101739.19;127689;1092;104458;-75
2020/12/17 05:40:19;;;;;;;26.13;12.40;;;;;;;3.86;83.54;101746.05;127588;1091;104470;-75
2020/12/17 05:42:48;;;;;;;25.23;12.43;;;;;;;3.83;84.27;101743.20;127493;1091;104595;-76
2020/12/17 05:45:29;;;;;;;25.00;11.15;;;;;;;3.81;83.84;101739.58;127594;1091;104414;-75
2020/12/17 05:48:13;;;;;;;27.17;12.57;;;;;;;3.83;84.42;101745.79;127538;1091;104410;-76
2020/12/17 05:50:54;;;;;;;24.47;11.43;;;;;;;3.85;83.76;101743.32;128925;1091;103202;-76
2020/12/17 05:53:24;;;;;;;27.83;12.13;;;;;;;3.90;84.14;101753.31;128860;1092;102452;-77
2020/12/17 05:56:02;;;;;;;25.53;12.40;;;;;;;3.92;84.31;101746.55;128879;1092;102443;-77
2020/12/17 05:58:42;;;;;;;25.03;12.13;;;;;;;3.97;83.61;101746.93;128903;1092;102486;-76
2020/12/17 06:01:13;;;;;;;23.37;9.70;;;;;;;3.98;83.71;101755.66;128914;1092;102440;-76
2020/12/17 06:03:43;;;;;;;25.80;10.90;;;;;;;3.94;83.38;101752.80;128911;1092;103679;-76
2020/12/17 06:06:13;;;;;;;27.73;12.43;;;;;;;3.96;84.11;101753.83;128861;1092;102395;-75
2020/12/17 06:08:43;;;;;;;25.00;11.33;;;;;;;3.98;83.27;101750.46;128905;1092;102096;-76
2020/12/17 06:11:13;;;;;;;25.10;12.00;;;;;;;3.97;83.38;101757.32;128913;1092;102133;-75
2020/12/17 06:13:44;;;;;;;26.80;11.60;;;;;;;4.00;83.45;101759.27;128499;1091;102380;-75
2020/12/17 06:16:15;;;;;;;27.20;11.73;;;;;;;4.04;84.13;101756.16;127366;1091;104557;-75
2020/12/17 06:18:55;;;;;;;28.53;13.00;;;;;;;4.05;83.97;101757.95;127502;1092;104579;-77
2020/12/17 06:21:26;;;;;;;30.23;13.43;;;;;;;4.04;83.58;101750.97;127544;1092;104519;-76
2020/12/17 06:23:58;;;;;;;31.57;14.13;;;;;;;4.02;83.43;101752.50;127235;1093;104499;-75
2020/12/17 06:26:28;;;;;;;33.47;16.10;;;;;;;4.05;84.06;101763.14;127279;1091;105289;-76
2020/12/17 06:29:09;;;;;;;28.40;13.70;;;;;;;4.07;84.08;101753.81;127173;1092;104439;-77
2020/12/17 06:31:55;;;;;;;28.80;12.73;;;;;;;4.13;83.70;101759.52;127059;1092;104494;-76
2020/12/17 06:34:30;;;;;;;27.00;13.00;;;;;;;4.17;83.57;101760.66;128863;1092;102369;-75
2020/12/17 06:37:02;;;;;;;28.87;12.77;;;;;;;4.16;83.54;101761.43;128864;1092;102531;-76
2020/12/17 06:39:33;;;;;;;29.80;13.47;;;;;;;4.16;83.94;101761.43;128876;1092;102421;-74
2020/12/17 06:42:02;;;;;;;26.57;11.73;;;;;;;4.17;84.10;101769.34;128839;1092;103073;-75
2020/12/17 06:44:33;;;;;;;29.67;13.27;;;;;;;4.16;83.88;101767.55;128832;1092;102466;-75
2020/12/17 06:47:04;;;;;;;27.30;11.93;;;;;;;4.16;83.65;101772.75;128831;1092;102527;-77
2020/12/17 06:49:34;;;;;;;28.10;12.80;;;;;;;4.18;83.73;101775.47;128844;1092;102510;-76
2020/12/17 06:52:06;;;;;;;27.73;13.73;;;;;;;4.21;83.43;101781.81;128856;1092;102507;-76
2020/12/17 06:54:42;;;;;;;27.57;13.33;;;;;;;4.20;83.35;101779.98;128874;1092;103246;-76
2020/12/17 06:57:13;;;;;;;26.47;12.47;;;;;;;4.22;83.56;101783.61;128759;1092;102546;-77
2020/12/17 06:59:43;;;;;;;28.83;13.60;;;;;;;4.24;83.92;101784.67;128489;1092;102572;-77
2020/12/17 07:02:18;;;;;;;28.03;13.13;;;;;;;4.27;83.43;101781.39;128891;1092;102495;-75
2020/12/17 07:04:49;;;;;;;30.03;13.57;;;;;;;4.29;83.67;101790.24;128869;1092;102345;-75
2020/12/17 07:07:21;;;;;;;29.23;13.97;;;;;;;4.29;83.45;101795.44;128878;1092;103526;-76
2020/12/17 07:09:53;;;;;;;25.90;10.73;;;;;;;4.30;83.75;101787.77;128856;1092;102587;-79
2020/12/17 07:12:43;;;;;;;29.37;13.57;;;;;;;4.27;83.11;101784.92;128801;1092;102909;-77
2020/12/17 07:15:38;;;;;;;28.60;12.60;;;;;;;4.26;83.77;101785.69;128874;1092;102516;-78
2020/12/17 07:18:25;;;;;;;31.40;14.07;;;;;;;4.32;83.59;101787.89;128886;1092;102446;-78
2020/12/17 07:21:08;;;;;;;30.63;13.37;;;;;;;4.31;83.81;101786.06;128905;1092;103163;-79
2020/12/17 07:23:42;;;;;;;34.10;15.20;;;;;;;4.36;83.73;101787.34;128862;1092;102430;-77
2020/12/17 07:26:14;;;;;;;32.13;15.97;;;;;;;4.36;83.46;101791.64;128470;1093;102517;-78
2020/12/17 07:28:53;;;;;;;29.93;15.33;;;;;;;4.37;83.38;101789.16;127737;1092;104865;-77
2020/12/17 07:31:26;;;;;;;31.73;15.47;;;;;;;4.42;83.66;101793.03;127262;1091;105175;-77
2020/12/17 07:33:59;;;;;;;34.77;16.50;;;;;;;4.41;83.43;101792.91;127373;1091;104525;-75
2020/12/17 07:36:48;;;;;;;28.97;14.83;;;;;;;4.39;83.25;101795.38;127279;1091;104555;-77
2020/12/17 07:39:18;;;;;;;31.67;14.77;;;;;;;4.37;83.02;101791.77;127329;1091;104522;-75
2020/12/17 07:42:02;;;;;;;29.70;13.83;;;;;;;4.36;83.38;101786.44;127202;1092;104503;-76
2020/12/17 07:44:41;;;;;;;32.23;14.70;;;;;;;4.36;83.32;101783.84;127299;1091;104410;-75
2020/12/17 07:47:23;;;;;;;28.00;13.70;;;;;;;4.37;83.90;101788.27;127316;1091;104496;-76
2020/12/17 07:49:57;;;;;;;32.93;14.93;;;;;;;4.34;83.78;101783.72;127201;1091;104668;-77
2020/12/17 07:52:32;;;;;;;34.67;15.25;;;;;;;4.35;83.54;101789.81;127321;1091;104494;-76
2020/12/17 07:55:03;;;;;;;31.57;14.93;;;;;;;4.38;83.53;101788.39;127139;1091;104439;-76
2020/12/17 07:57:33;;;;;;;34.30;15.63;;;;;;;4.40;83.42;101791.12;127183;1092;104433;-75
2020/12/17 08:00:03;;;;;;;32.37;16.17;;;;;;;4.44;83.43;101798.36;127242;1091;104541;-75
2020/12/17 08:02:45;;;;;;;29.65;14.68;;;;;;;4.46;83.40;101789.91;127267;1091;104567;-76
2020/12/17 08:05:24;;;;;;;36.30;16.77;;;;;;;4.47;83.59;101790.80;127154;1092;104528;-78
2020/12/17 08:08:00;;;;;;;36.68;18.00;;;;;;;4.51;83.36;101795.48;127196;1092;104854;-79
2020/12/17 08:10:46;;;;;;;28.40;12.60;;;;;;;4.52;83.96;101798.98;127404;1091;104458;-76
2020/12/17 08:13:25;;;;;;;33.13;15.53;;;;;;;4.49;83.34;101786.66;127520;1092;104865;-76
2020/12/17 08:15:56;;;;;;;35.07;16.50;;;;;;;4.50;83.34;101791.05;128217;1092;104516;-75
2020/12/17 08:18:27;;;;;;;32.20;15.57;;;;;;;4.49;83.28;101789.27;127501;1092;104410;-77
2020/12/17 08:21:05;;;;;;;35.13;17.00;;;;;;;4.45;83.07;101789.78;127369;1092;104435;-78
2020/12/17 08:23:37;;;;;;;36.10;17.10;;;;;;;4.46;83.50;101784.71;127272;1091;104413;-78
2020/12/17 08:26:18;;;;;;;35.17;16.83;;;;;;;4.48;83.51;101787.44;127269;1092;104429;-75
2020/12/17 08:28:48;;;;;;;35.20;17.40;;;;;;;4.50;83.45;101786.78;127412;1091;104448;-75
2020/12/17 08:31:20;;;;;;;32.00;15.00;;;;;;;4.53;83.87;101787.81;127396;1091;104455;-77
2020/12/17 08:33:53;;;;;;;34.60;16.23;;;;;;;4.56;83.85;101788.95;127778;1091;104494;-77
2020/12/17 08:36:27;;;;;;;34.90;17.03;;;;;;;4.59;83.37;101791.80;127294;1091;104564;-77
2020/12/17 08:38:59;;;;;;;34.95;16.15;;;;;;;4.61;83.71;101786.72;127185;1091;104433;-80
2020/12/17 08:41:35;;;;;;;36.33;16.90;;;;;;;4.63;83.26;101782.58;127386;1093;104599;-75
2020/12/17 08:44:08;;;;;;;34.80;16.07;;;;;;;4.69;83.76;101780.47;127238;1092;104504;-77
2020/12/17 08:46:54;;;;;;;35.13;17.37;;;;;;;4.66;83.31;101777.62;127153;1092;104430;-77
2020/12/17 08:49:28;;;;;;;36.23;16.43;;;;;;;4.63;83.31;101778.27;127242;1092;104547;-75
2020/12/17 08:51:58;;;;;;;38.80;18.02;;;;;;;4.62;83.36;101775.55;127220;1091;104561;-77
2020/12/17 08:54:31;;;;;;;37.63;17.43;;;;;;;4.65;83.92;101771.49;127298;1091;104414;-74
2020/12/17 08:57:02;;;;;;;31.67;16.53;;;;;;;4.67;83.31;101766.41;127211;1093;104599;-75
2020/12/17 08:59:32;;;;;;;36.17;18.40;;;;;;;4.66;83.42;101773.31;127295;1091;104627;-74
2020/12/17 09:02:02;;;;;;;37.60;18.90;;;;;;;4.67;83.27;101774.21;127311;1093;105048;-75
2020/12/17 09:04:31;;;;;;;36.47;18.83;;;;;;;4.71;83.50;101770.19;126891;1091;104666;-74
2020/12/17 09:07:02;;;;;;;38.63;18.87;;;;;;;4.74;83.43;101771.33;127343;1092;104436;-75
2020/12/17 09:09:33;;;;;;;35.47;18.00;;;;;;;4.75;83.55;101774.83;127363;1092;104426;-74
2020/12/17 09:12:06;;;;;;;38.07;19.07;;;;;;;4.72;83.41;101762.51;127389;1091;104600;-74
2020/12/17 09:14:40;;;;;;;36.07;17.70;;;;;;;4.74;83.46;101765.23;126894;1092;104615;-75
2020/12/17 09:17:12;;;;;;;35.90;16.70;;;;;;;4.68;82.92;101763.94;126910;1093;104544;-75
2020/12/17 09:19:44;;;;;;;36.70;17.83;;;;;;;4.61;83.26;101764.25;126932;1094;104548;-76
2020/12/17 09:22:14;;;;;;;39.60;19.13;;;;;;;4.61;83.47;101758.13;127430;1091;104437;-76
2020/12/17 09:24:49;;;;;;;38.17;17.97;;;;;;;4.63;83.89;101764.38;127207;1092;104494;-75
2020/12/17 09:27:23;;;;;;;38.63;16.93;;;;;;;4.62;83.54;101760.84;126856;1094;104866;-76
2020/12/17 09:30:07;;;;;;;37.20;18.20;;;;;;;4.61;83.48;101765.92;126876;1092;104582;-74
2020/12/17 09:32:38;;;;;;;38.90;17.92;;;;;;;4.59;83.14;101758.00;127223;1091;104490;-75
2020/12/17 09:35:10;;;;;;;37.60;19.07;;;;;;;4.60;83.32;101764.12;127406;1092;104601;-73
2020/12/17 09:37:41;;;;;;;39.33;19.13;;;;;;;4.61;83.69;101758.13;127399;1092;104436;-73
2020/12/17 09:40:14;;;;;;;43.23;21.47;;;;;;;4.63;83.94;101762.67;127354;1093;104750;-73
2020/12/17 09:42:43;;;;;;;46.40;21.53;;;;;;;4.67;84.02;101753.41;127300;1092;104501;-75
2020/12/17 09:45:20;;;;;;;39.93;20.27;;;;;;;4.67;83.95;101756.94;127351;1091;104491;-75
2020/12/17 09:47:55;;;;;;;41.27;21.43;;;;;;;4.70;83.57;101755.36;127409;1092;104599;-75
2020/12/17 09:50:24;;;;;;;44.90;20.13;;;;;;;4.68;83.35;101763.04;127472;1091;104468;-74
2020/12/17 09:52:54;;;;;;;40.87;19.87;;;;;;;4.67;83.57;101758.61;127284;1092;104557;-75
2020/12/17 09:55:28;;;;;;;37.93;18.57;;;;;;;4.64;83.42;101763.57;127186;1091;104442;-77
2020/12/17 09:58:01;;;;;;;41.37;20.03;;;;;;;4.63;83.37;101764.38;127134;1093;104435;-77
2020/12/17 10:00:33;;;;;;;38.37;19.00;;;;;;;4.62;83.57;101754.75;127019;1093;104563;-79
2020/12/17 10:03:04;;;;;;;40.80;20.37;;;;;;;4.66;83.50;101757.72;127023;1092;104564;-78
2020/12/17 10:05:47;;;;;;;41.20;17.03;;;;;;;4.69;83.90;101762.27;127192;1092;104494;-76
2020/12/17 10:08:16;;;;;;;37.60;17.43;;;;;;;4.71;83.37;101759.79;127101;1091;104564;-76
2020/12/17 10:10:46;;;;;;;34.10;15.97;;;;;;;4.73;83.69;101760.80;127203;1091;104474;-74
2020/12/17 10:13:16;;;;;;;33.17;15.03;;;;;;;4.74;83.65;101758.33;127132;1092;104475;-77
2020/12/17 10:15:45;;;;;;;31.13;13.30;;;;;;;4.74;83.42;101760.03;126980;1092;105183;-78
2020/12/17 10:18:20;;;;;;;27.40;12.23;;;;;;;4.77;83.34;101765.44;127006;1093;104560;-78
2020/12/17 10:20:51;;;;;;;31.37;13.03;;;;;;;4.77;83.34;101758.57;127085;1091;104461;-77
2020/12/17 10:23:21;;;;;;;29.43;12.63;;;;;;;4.78;83.30;101760.36;127112;1091;104580;-76
2020/12/17 10:25:53;;;;;;;29.43;13.67;;;;;;;4.80;83.23;101751.02;127170;1092;104595;-78
2020/12/17 10:28:28;;;;;;;27.20;13.97;;;;;;;4.81;83.09;101747.60;127124;1092;104446;-78
2020/12/17 10:30:58;;;;;;;33.77;15.10;;;;;;;4.84;83.65;101754.75;127165;1093;104433;-76
2020/12/17 10:33:30;;;;;;;32.13;14.23;;;;;;;4.80;83.21;101748.41;127181;1092;104437;-76
2020/12/17 10:36:01;;;;;;;34.73;15.97;;;;;;;4.80;83.12;101750.08;127194;1092;104494;-78
2020/12/17 10:38:33;;;;;;;39.40;17.43;;;;;;;4.80;83.70;101743.21;127240;1093;104442;-76
2020/12/17 10:41:06;;;;;;;35.28;17.05;;;;;;;4.77;83.58;101745.57;127369;1092;104430;-75
2020/12/17 10:43:35;;;;;;;33.43;15.83;;;;;;;4.76;83.50;101746.34;127353;1091;104427;-76
2020/12/17 10:46:05;;;;;;;37.97;18.60;;;;;;;4.76;83.53;101742.84;127316;1092;104579;-77
2020/12/17 10:48:38;;;;;;;38.07;19.30;;;;;;;4.78;83.80;101741.27;127091;1092;104468;-77
2020/12/17 10:51:12;;;;;;;39.53;18.73;;;;;;;4.83;83.27;101739.92;128909;1092;102376;-79
2020/12/17 10:53:44;;;;;;;34.63;17.47;;;;;;;4.81;83.24;101731.10;128911;1093;102454;-77
2020/12/17 10:56:14;;;;;;;34.83;16.17;;;;;;;4.76;83.56;101737.64;128917;1092;102112;-77
2020/12/17 10:58:43;;;;;;;34.27;16.20;;;;;;;4.76;83.78;101732.44;128399;1092;103054;-76
2020/12/17 11:01:13;;;;;;;32.97;15.60;;;;;;;4.74;83.40;101731.42;127308;1092;104433;-74
2020/12/17 11:03:43;;;;;;;36.67;15.57;;;;;;;4.75;83.24;101730.62;127246;1092;104516;-77
2020/12/17 11:06:17;;;;;;;31.47;14.67;;;;;;;4.76;83.64;101730.73;127123;1092;104458;-78
2020/12/17 11:08:46;;;;;;;28.77;13.90;;;;;;;4.77;83.12;101723.83;127076;1093;104480;-78
2020/12/17 11:11:16;;;;;;;30.47;15.10;;;;;;;4.76;83.73;101724.64;127096;1093;104436;-79
2020/12/17 11:13:46;;;;;;;34.37;16.30;;;;;;;4.77;83.75;101721.23;127123;1091;104558;-78
2020/12/17 11:16:17;;;;;;;31.15;15.05;;;;;;;4.76;83.35;101722.05;127075;1092;104602;-79
2020/12/17 11:18:47;;;;;;;29.90;13.90;;;;;;;4.75;83.81;101721.11;127200;1092;104544;-79
2020/12/17 11:21:21;;;;;;;28.97;12.70;;;;;;;4.77;83.68;101726.44;127198;1092;104436;-79